New Orleans, Louisiana
Traffic Map
Current Weather Conditions
New Orleans, Louisiana
Broken Clouds
Broken Clouds
25°
Feels Like: 26°
Wind Chill: 25° Ceiling: 4100
Heat Index: 26° Visibility: 10mi
Dew Point: 17° Wind: 0mph
Humidity: 60% Direction: ° ()
Pressure: 29.77in Gusts: 0mph
Raw Report DataKNEW 232253Z AUTO 00000KT 10SM BKN041 25/17 A2977 RMK AO2 SLP074 T02500167
Traffic Incident Summary
Active as of:
Severity:
Category:
InformationThere was an issue retrieving the traffic information for this location. Please try a different location or try again shortly.
Advertisements
Track Severe Weather on mobile